gp della lettonia

MXGP. Gajser e Herlings si aggiudicano le qualifiche in Lettonia

- Sulla sabbia del GP di Lettonia lo sloveno e l’incontrastato leader della MX2 si aggiudicano le rispettive qualifiche
MXGP. Gajser e Herlings si aggiudicano le qualifiche in Lettonia

Sulla lunga e ondulata striscia di sabbia che caratterizza il tracciato di Kegums, Tony Cairoli ha sempre fatto vedere di che pasta è fatto e nella prima giornata di questa edizione l’ufficiale KTM, dopo l’opaco GP del Messico, è tornato protagonista.

Per 8 dei 12 giri disputati, il messinese è infatti rimasto in testa al gruppo, anche se poi dopo due tentativi non andati a buon fine Tim Gajser ha avuto la meglio soffiandogli la vittoria. Per Cairoli è però stato importante aver visto che il suo stato di forma è sempre migliore, e che per la gara ufficiale ha tutte le carte in regola per puntare al podio.

Alle sue spalle si sono piazzati Jeremy Van Horebeek, Kevin Strijbos e Romain Febvre rinvenuto dalla decima piazza; brutto colpo invece per Evgeny Bobryshev, ritiratosi per una caduta alla partenza che gli ha procurato un forte dolore ad una spalla anche se sono escluse ulteriori complicanze.

 

 

MX2

La MX2 è stata finalmente movimentata da Jeremy Seewer che ha preso il comando alla prima curva, ma la prova di forza dello svizzero ufficiale Suzuki è durata solo un giro perché poi Jeffrey Herlings lo ha scavalcato per poi dar inizio alla sua cavalcata solitaria conclusa davanti al pilota di casa Pauls Jonass e a Seewer. Quarta posizione per Max Anstie, vincitore dell’edizione 2015, davanti al rientrante Dylan Ferrandis; 10° il bravo Michele Cervellin mentre Samuele Bernardini non ha trovato il setting giusto e dopo un po’ di rischi ha preferito non eccedere e si è accontentato del 14° posto.

 

 

 

Classifiche 

MXGP - Qualifying Race - Classification
Pos Nr Rider Nat. Fed. Bike Time laps Diff. First Diff. Prev. Bestlaptime in lap Speed
1 243 Gajser, Tim SLO AMZS Honda 24:20.229 12 0:00.000 0:00.000 1:53.539 7 48.8
2 222 Cairoli, Antonio ITA FMI KTM 24:21.862 12 0:01.633 0:01.633 1:53.453 5 48.8
3 89 Van Horebeek, Jeremy BEL FMB Yamaha 24:24.375 12 0:04.146 0:02.513 1:53.405 2 48.8
4 22 Strijbos, Kevin BEL FMB Suzuki 24:25.531 12 0:05.302 0:01.156 1:53.232 1 48.9
5 461 Febvre, Romain FRA FFM Yamaha 24:31.508 12 0:11.279 0:05.977 1:53.184 4 48.9
6 12 Nagl, Maximilian GER DMSB Husqvarna 24:40.250 12 0:20.021 0:08.742 1:52.406 5 49.3
7 8 Townley, Ben NZL MNZ Suzuki 24:54.736 12 0:34.507 0:14.486 1:54.279 2 48.5
8 24 Simpson, Shaun GBR ACU KTM 24:55.954 12 0:35.725 0:01.218 1:55.217 2 48.1
9 25 Desalle, Clement BEL FMB Kawasaki 24:56.731 12 0:36.502 0:00.777 1:55.534 3 47.9
10 259 Coldenhoff, Glenn NED KNMV KTM 25:00.568 12 0:40.339 0:03.837 1:55.479 3 48
11 23 Charlier, Christophe FRA FFM Husqvarna 25:03.350 12 0:43.121 0:02.782 1:55.630 4 47.9
12 92 Guillod, Valentin SUI FMS Yamaha 25:10.576 12 0:50.347 0:07.226 1:55.961 6 47.8
13 32 Potisek, Milko FRA FFM Yamaha 25:24.625 12 1:04.396 0:14.049 1:56.915 2 47.4
14 45 Nicholls, Jake GBR ACU Husqvarna 25:28.722 12 1:08.493 0:04.097 1:57.168 5 47.3
15 685 Lenoir, Steven FRA FFM Honda 25:35.866 12 1:15.637 0:07.144 1:58.314 3 46.8

 

MX2 - Qualifying Race - Classification
Pos Nr Rider Nat. Fed. Bike Time laps Diff. First Diff. Prev. Bestlaptime in lap Speed
1 84 Herlings, Jeffrey NED KNMV KTM 23:57.717 12 0:00.000 0:00.000 1:51.523 6 49.7
2 41 Jonass, Pauls LAT LAMSF KTM 24:16.064 12 0:18.347 0:18.347 1:52.739 2 49.1
3 91 Seewer, Jeremy SUI FMS Suzuki 24:17.473 12 0:19.756 0:01.409 1:52.364 1 49.3
4 99 Anstie, Max GBR ACU Husqvarna 24:26.035 12 0:28.318 0:08.562 1:53.181 3 48.9
5 4 Ferrandis, Dylan FRA FFM Kawasaki 24:52.149 12 0:54.432 0:26.114 1:53.677 2 48.7
6 10 Vlaanderen, Calvin NED KNMV KTM 24:56.388 12 0:58.671 0:04.239 1:54.275 3 48.5
7 152 Petrov, Petar BUL QMMF Kawasaki 24:57.576 12 0:59.859 0:01.188 1:55.608 4 47.9
8 172 Van doninck, Brent BEL FMB Yamaha 24:57.921 12 1:00.204 0:00.345 1:55.225 3 48.1
9 6 Paturel, Benoit FRA FFM Yamaha 25:02.417 12 1:04.700 0:04.496 1:54.333 1 48.4
10 747 Cervellin, Michele ITA FMI Honda 25:07.607 12 1:09.890 0:05.190 1:55.386 4 48
11 189 Bogers, Brian NED KNMV KTM 25:08.757 12 1:11.040 0:01.150 1:53.802 1 48.7
12 95 Justs, Roberts LAT LAMSF KTM 25:10.807 12 1:13.090 0:02.050 1:54.101 3 48.5
13 71 Graulus, Damon BEL FMB Honda 25:12.746 12 1:15.029 0:01.939 1:56.180 5 47.7
14 321 Bernardini, Samuele ITA FMI TM 25:16.616 12 1:18.899 0:03.870 1:54.582 1 48.3
15 132 Kutsar, Karel EST EMF KTM 25:17.465 12 1:19.748 0:00.849 1:56.503 4 47.5
  • corsera, La Spezia (SP)

    Non è significativo ma JH84 avrebbe dato 1/2 minuto al 1° della MXGP
  • bymaxx, VIGEVANO (PV)

    Vai Tonino, è il tuo momento!
Inserisci il tuo commento